Time;durP1;ratioP1;P1;durP2;ratioP2;P2;SDS_P1;SDS_P2;PMS_P1;PMS_P2;Temp;Humidity;BMP_temperature;BMP_pressure;BME280_temperature;BME280_humidity;BME280_pressure;Samples;Min_cycle;Max_cycle;Signal;HPM_P1;HPM_P2
2024/03/30 00:00:00;;;;;;;234.93;23.17;;;16.90;42.90;;;;;;5035209;28;20063;-80
2024/03/30 00:02:29;;;;;;;191.30;21.15;;;16.90;42.10;;;;;;5058215;28;20056;-80
2024/03/30 00:04:57;;;;;;;207.25;23.23;;;16.80;43.60;;;;;;5036576;28;20060;-80
2024/03/30 00:07:23;;;;;;;181.25;21.27;;;16.80;44.00;;;;;;5037216;28;20469;-80
2024/03/30 00:09:49;;;;;;;176.75;21.63;;;16.80;44.70;;;;;;5037307;28;20063;-81
2024/03/30 00:12:16;;;;;;;218.38;19.60;;;16.70;43.10;;;;;;5037647;28;20477;-79
2024/03/30 00:14:44;;;;;;;191.63;20.42;;;16.60;42.10;;;;;;5037300;28;20539;-79
2024/03/30 00:17:10;;;;;;;200.43;22.08;;;16.80;39.80;;;;;;5035556;28;20053;-80
2024/03/30 00:19:38;;;;;;;201.30;22.25;;;17.00;39.10;;;;;;5035873;28;20465;-80
2024/03/30 00:22:05;;;;;;;234.40;22.27;;;17.30;37.90;;;;;;5032623;28;20053;-81
2024/03/30 00:24:31;;;;;;;187.75;19.88;;;17.40;37.90;;;;;;5036283;28;20060;-80
2024/03/30 00:26:57;;;;;;;217.43;22.75;;;17.60;38.30;;;;;;5035865;28;20053;-79
2024/03/30 00:29:23;;;;;;;187.45;20.08;;;17.70;37.50;;;;;;5036216;28;20136;-82
2024/03/30 00:31:49;;;;;;;205.35;20.67;;;17.70;37.00;;;;;;5037560;28;20066;-81
2024/03/30 00:34:15;;;;;;;190.82;19.05;;;17.80;38.10;;;;;;5037543;28;20044;-81
2024/03/30 00:36:41;;;;;;;182.93;18.63;;;17.80;38.50;;;;;;5056113;28;20052;-80
2024/03/30 00:39:07;;;;;;;175.88;18.27;;;17.80;38.00;;;;;;5043727;28;20432;-81
2024/03/30 00:41:34;;;;;;;174.27;19.55;;;17.90;36.70;;;;;;5037445;28;20058;-80
2024/03/30 00:44:00;;;;;;;180.23;18.92;;;18.10;35.90;;;;;;5037498;28;20067;-80
2024/03/30 00:46:27;;;;;;;179.63;19.95;;;18.20;35.40;;;;;;5037359;28;20059;-81
2024/03/30 00:48:53;;;;;;;190.45;21.38;;;18.30;35.90;;;;;;5053946;28;20056;-80
2024/03/30 00:51:19;;;;;;;177.52;21.33;;;18.30;35.60;;;;;;5037531;28;20067;-80
2024/03/30 00:53:48;;;;;;;174.25;20.83;;;18.40;35.10;;;;;;5037635;28;20053;-80
2024/03/30 00:56:16;;;;;;;158.68;19.17;;;18.60;35.10;;;;;;5050768;28;20052;-81
2024/03/30 00:58:42;;;;;;;181.27;18.27;;;18.90;33.90;;;;;;5054315;28;20362;-80
2024/03/30 01:01:10;;;;;;;159.50;18.27;;;19.00;34.10;;;;;;5032876;28;20044;-81
2024/03/30 01:03:41;;;;;;;168.82;17.98;;;19.10;33.30;;;;;;5037053;28;20059;-81
2024/03/30 01:06:07;;;;;;;149.07;17.63;;;19.30;32.90;;;;;;5055886;28;20051;-80
2024/03/30 01:08:33;;;;;;;163.85;19.70;;;19.50;32.30;;;;;;5041271;28;20057;-80
2024/03/30 01:11:00;;;;;;;166.65;17.23;;;19.80;31.70;;;;;;5041308;28;20465;-80
2024/03/30 01:13:26;;;;;;;144.63;16.70;;;19.90;32.00;;;;;;5057553;28;20071;-80
2024/03/30 01:15:53;;;;;;;165.45;17.83;;;19.90;31.60;;;;;;5041120;28;20048;-82
2024/03/30 01:18:19;;;;;;;161.07;20.10;;;19.90;31.80;;;;;;5039071;28;20059;-81
2024/03/30 01:20:50;;;;;;;167.18;18.77;;;20.00;32.00;;;;;;5068811;28;20052;-79
2024/03/30 01:23:20;;;;;;;163.00;18.40;;;20.00;32.40;;;;;;5041424;28;20060;-79
2024/03/30 01:25:47;;;;;;;149.20;17.05;;;19.90;31.80;;;;;;5041496;28;20060;-79
2024/03/30 01:28:15;;;;;;;170.85;17.75;;;19.90;32.00;;;;;;5057968;28;20056;-78
2024/03/30 01:30:41;;;;;;;164.32;19.08;;;20.00;31.40;;;;;;5057449;28;20057;-77
2024/03/30 01:33:10;;;;;;;170.63;16.98;;;20.00;31.70;;;;;;5057653;28;20048;-78
2024/03/30 01:35:36;;;;;;;151.70;16.08;;;20.10;31.50;;;;;;5057352;28;20053;-79
2024/03/30 01:38:02;;;;;;;145.88;15.75;;;20.10;31.90;;;;;;5024309;28;20064;-79
2024/03/30 01:40:33;;;;;;;138.38;17.40;;;20.10;31.30;;;;;;5034483;28;20104;-79
2024/03/30 01:43:02;;;;;;;145.02;16.15;;;20.20;31.30;;;;;;5021341;28;20053;-79
2024/03/30 01:45:33;;;;;;;156.43;16.83;;;20.20;31.30;;;;;;5018777;28;20501;-79
2024/03/30 01:48:00;;;;;;;132.82;15.32;;;20.20;31.50;;;;;;5037569;28;20111;-79
2024/03/30 01:50:29;;;;;;;129.80;15.10;;;20.20;31.50;;;;;;5029693;28;20115;-79
2024/03/30 01:52:56;;;;;;;156.25;17.33;;;20.20;31.60;;;;;;5021181;28;20052;-79
2024/03/30 01:55:22;;;;;;;142.27;17.50;;;20.20;31.60;;;;;;5037678;28;20565;-79
2024/03/30 01:57:51;;;;;;;165.18;17.02;;;20.20;31.20;;;;;;5021232;28;20060;-80
2024/03/30 02:00:17;;;;;;;153.05;14.70;;;20.20;31.40;;;;;;5021433;28;20061;-78
2024/03/30 02:02:47;;;;;;;147.15;16.00;;;20.20;31.80;;;;;;5048248;28;20456;-79
2024/03/30 02:05:13;;;;;;;150.82;15.27;;;20.10;31.70;;;;;;5037555;28;20377;-79
2024/03/30 02:07:41;;;;;;;147.52;15.43;;;20.00;31.70;;;;;;5020733;28;20111;-79
2024/03/30 02:10:09;;;;;;;148.90;15.63;;;20.00;31.50;;;;;;5020733;28;20393;-79
2024/03/30 02:12:41;;;;;;;129.77;15.43;;;20.00;32.20;;;;;;5037019;28;20045;-79
2024/03/30 02:15:08;;;;;;;156.30;15.98;;;20.00;31.80;;;;;;5052329;28;20056;-80
2024/03/30 02:17:34;;;;;;;113.50;14.88;;;20.00;32.00;;;;;;5019364;28;20118;-79
2024/03/30 02:20:00;;;;;;;138.43;14.73;;;20.00;32.00;;;;;;5020507;28;20107;-79
2024/03/30 02:22:29;;;;;;;128.75;14.02;;;20.00;31.60;;;;;;5066102;28;20045;-79
2024/03/30 02:24:59;;;;;;;136.75;14.95;;;20.00;31.60;;;;;;5020555;28;20057;-80
2024/03/30 02:27:25;;;;;;;131.27;13.98;;;19.90;31.80;;;;;;5036598;28;20436;-80
2024/03/30 02:29:58;;;;;;;134.43;15.70;;;19.90;32.00;;;;;;5046543;28;20114;-79
2024/03/30 02:32:24;;;;;;;141.57;14.43;;;19.90;32.10;;;;;;5042489;28;20056;-79
2024/03/30 02:34:50;;;;;;;140.85;15.95;;;19.80;31.90;;;;;;5020172;28;20048;-80
2024/03/30 02:37:17;;;;;;;112.15;14.32;;;19.80;31.80;;;;;;5039379;28;20065;-78
2024/03/30 02:39:45;;;;;;;129.73;14.15;;;19.80;32.00;;;;;;5039835;28;20472;-79
2024/03/30 02:42:13;;;;;;;131.68;13.73;;;19.80;32.20;;;;;;5039718;28;20060;-79
2024/03/30 02:44:39;;;;;;;117.85;13.77;;;19.80;32.10;;;;;;5036552;28;20056;-79
2024/03/30 02:47:05;;;;;;;138.63;14.13;;;19.80;31.80;;;;;;5039516;28;20127;-80
2024/03/30 02:49:31;;;;;;;134.95;13.77;;;19.80;32.00;;;;;;5037387;28;20048;-79
2024/03/30 02:51:57;;;;;;;135.10;14.23;;;19.70;32.00;;;;;;5039588;28;20105;-79
2024/03/30 02:54:23;;;;;;;131.57;14.48;;;19.70;31.80;;;;;;5039137;28;20060;-78
2024/03/30 02:56:48;;;;;;;136.20;14.85;;;19.70;32.00;;;;;;5065570;28;20377;-79
2024/03/30 02:59:14;;;;;;;135.07;12.95;;;19.70;31.70;;;;;;5053177;28;20064;-79
2024/03/30 03:01:45;;;;;;;133.23;12.95;;;19.70;31.70;;;;;;5039705;28;20124;-79
2024/03/30 03:04:11;;;;;;;128.23;13.63;;;19.80;31.80;;;;;;5055695;28;20048;-79
2024/03/30 03:06:39;;;;;;;114.50;12.70;;;19.80;31.90;;;;;;5063148;28;20496;-79
2024/03/30 03:09:07;;;;;;;114.75;14.57;;;19.70;31.80;;;;;;5055698;28;20067;-79
2024/03/30 03:11:33;;;;;;;103.47;13.07;;;19.70;31.80;;;;;;5060256;28;20052;-80
2024/03/30 03:13:59;;;;;;;120.65;12.98;;;19.70;31.90;;;;;;5066059;28;20080;-79
2024/03/30 03:16:25;;;;;;;109.13;12.00;;;19.70;31.80;;;;;;5055701;28;20048;-79
2024/03/30 03:18:51;;;;;;;88.90;13.40;;;19.70;31.50;;;;;;5035739;28;20040;-79
2024/03/30 03:21:19;;;;;;;112.18;12.07;;;19.70;31.50;;;;;;5038864;28;20094;-79
2024/03/30 03:23:45;;;;;;;101.45;12.55;;;19.70;31.50;;;;;;5039243;28;20131;-80
2024/03/30 03:26:11;;;;;;;100.93;13.82;;;19.70;32.00;;;;;;5039123;28;20084;-80
2024/03/30 03:28:37;;;;;;;109.50;13.55;;;19.70;31.80;;;;;;5055230;28;20110;-79
2024/03/30 03:31:03;;;;;;;93.53;10.73;;;19.70;32.10;;;;;;5039283;28;20060;-79
2024/03/30 03:33:29;;;;;;;111.70;12.23;;;19.60;32.10;;;;;;5038890;28;20075;-79
2024/03/30 03:35:57;;;;;;;87.93;10.52;;;19.60;32.00;;;;;;5038569;28;20473;-79
2024/03/30 03:38:23;;;;;;;100.45;10.95;;;19.60;32.10;;;;;;5083249;28;20048;-79
2024/03/30 03:40:49;;;;;;;110.15;11.55;;;19.60;31.80;;;;;;5038449;28;20068;-80
2024/03/30 03:43:15;;;;;;;91.05;11.82;;;19.60;31.90;;;;;;5038914;28;20091;-78
2024/03/30 03:45:45;;;;;;;96.93;10.02;;;19.60;32.10;;;;;;5038552;28;20161;-78
2024/03/30 03:48:14;;;;;;;92.18;11.02;;;19.60;32.00;;;;;;5054769;28;20056;-78
2024/03/30 03:50:43;;;;;;;80.15;9.88;;;19.70;32.00;;;;;;5038196;28;20057;-78
2024/03/30 03:53:09;;;;;;;100.25;10.63;;;19.70;31.70;;;;;;5054865;28;20044;-80
2024/03/30 03:55:36;;;;;;;84.25;10.48;;;19.70;31.50;;;;;;5066592;28;20056;-79
2024/03/30 03:58:02;;;;;;;95.43;10.73;;;19.70;31.70;;;;;;5052233;28;20102;-79
2024/03/30 04:00:28;;;;;;;100.22;10.25;;;19.70;31.80;;;;;;5038279;28;20057;-78
2024/03/30 04:02:54;;;;;;;96.00;9.32;;;19.60;31.60;;;;;;5054360;28;20056;-80
2024/03/30 04:05:21;;;;;;;87.07;9.68;;;19.60;31.80;;;;;;5038197;28;20053;-79
2024/03/30 04:07:46;;;;;;;76.55;8.57;;;19.60;31.50;;;;;;5054931;28;20412;-80
2024/03/30 04:10:15;;;;;;;79.88;9.73;;;19.60;31.30;;;;;;5038114;28;20057;-79
2024/03/30 04:12:41;;;;;;;82.18;10.20;;;19.70;31.60;;;;;;5035294;28;20056;-79
2024/03/30 04:15:09;;;;;;;80.65;9.73;;;19.60;31.60;;;;;;5054784;28;20057;-79
2024/03/30 04:17:35;;;;;;;76.63;8.60;;;19.60;31.70;;;;;;5082286;28;20053;-79
2024/03/30 04:20:02;;;;;;;74.80;10.15;;;19.60;31.80;;;;;;5054505;28;20053;-79
2024/03/30 04:22:27;;;;;;;81.13;10.35;;;19.60;32.10;;;;;;5038089;28;20060;-79
2024/03/30 04:24:53;;;;;;;82.40;10.60;;;19.50;32.20;;;;;;5062046;28;20084;-79
2024/03/30 04:27:19;;;;;;;80.07;9.40;;;19.50;32.30;;;;;;5038467;28;20099;-79
2024/03/30 04:29:47;;;;;;;67.57;9.05;;;19.50;32.40;;;;;;5038278;28;20078;-79
2024/03/30 04:32:13;;;;;;;96.78;9.55;;;19.40;32.40;;;;;;5025256;28;20049;-79
2024/03/30 04:34:40;;;;;;;76.03;10.23;;;19.40;32.40;;;;;;5038334;28;20114;-79
2024/03/30 04:37:08;;;;;;;68.10;9.45;;;19.40;32.80;;;;;;5037628;28;20053;-79
2024/03/30 04:39:34;;;;;;;84.47;10.27;;;19.30;32.90;;;;;;5038357;28;20061;-79
2024/03/30 04:42:03;;;;;;;85.10;9.52;;;19.20;33.40;;;;;;5041506;28;20453;-79
2024/03/30 04:44:29;;;;;;;73.55;9.15;;;19.10;33.10;;;;;;5058738;28;20439;-79
2024/03/30 04:46:54;;;;;;;79.50;9.13;;;19.10;33.10;;;;;;5041909;28;20053;-79
2024/03/30 04:49:21;;;;;;;82.40;9.88;;;19.10;32.90;;;;;;5041532;28;20052;-79
2024/03/30 04:51:47;;;;;;;86.32;8.20;;;19.10;33.30;;;;;;5041597;28;20056;-79
2024/03/30 04:54:13;;;;;;;63.53;8.50;;;19.10;33.60;;;;;;5041689;28;20052;-80
2024/03/30 04:56:41;;;;;;;65.63;8.07;;;19.00;33.40;;;;;;5058797;28;20080;-81
2024/03/30 04:59:07;;;;;;;72.90;8.77;;;19.10;32.60;;;;;;5057908;28;20413;-79
2024/03/30 05:01:33;;;;;;;78.93;9.00;;;19.10;32.60;;;;;;5041890;28;20075;-79
2024/03/30 05:03:59;;;;;;;72.85;9.00;;;19.10;33.20;;;;;;5041433;28;20493;-79
2024/03/30 05:06:25;;;;;;;73.20;7.95;;;19.10;33.10;;;;;;5058344;28;20197;-80
2024/03/30 05:08:52;;;;;;;77.05;9.20;;;19.10;33.40;;;;;;5041429;28;20086;-80
2024/03/30 05:11:18;;;;;;;69.72;8.50;;;19.00;33.20;;;;;;5041428;28;20061;-80
2024/03/30 05:13:46;;;;;;;70.53;8.15;;;19.00;33.10;;;;;;5041469;28;20052;-80
2024/03/30 05:16:12;;;;;;;53.53;7.72;;;19.10;32.70;;;;;;5041349;28;20082;-80
2024/03/30 05:18:38;;;;;;;65.47;7.55;;;19.10;32.80;;;;;;5058179;28;20119;-80
2024/03/30 05:21:04;;;;;;;67.47;7.68;;;19.20;32.10;;;;;;5041404;28;20044;-80
2024/03/30 05:23:35;;;;;;;47.53;7.43;;;19.30;32.00;;;;;;5040739;28;20064;-79
2024/03/30 05:26:03;;;;;;;61.80;7.45;;;19.40;31.80;;;;;;5057962;28;20397;-80
2024/03/30 05:28:31;;;;;;;60.22;8.32;;;19.40;31.80;;;;;;5088294;28;20049;-80
2024/03/30 05:30:59;;;;;;;66.50;7.38;;;19.50;32.10;;;;;;5041262;28;20063;-79
2024/03/30 05:33:26;;;;;;;63.55;7.25;;;19.50;32.00;;;;;;5045094;28;20356;-80
2024/03/30 05:35:53;;;;;;;52.20;6.15;;;19.50;32.40;;;;;;5041901;28;20067;-80
2024/03/30 05:38:23;;;;;;;55.88;6.38;;;19.50;32.50;;;;;;5057762;28;20502;-80
2024/03/30 05:40:50;;;;;;;63.75;6.72;;;19.60;33.00;;;;;;5048687;28;20477;-79
2024/03/30 05:43:16;;;;;;;51.58;6.95;;;19.60;33.20;;;;;;5041422;28;20052;-79
2024/03/30 05:45:47;;;;;;;62.58;7.65;;;19.60;33.00;;;;;;5057155;28;20481;-80
2024/03/30 05:48:15;;;;;;;52.85;6.65;;;19.60;33.10;;;;;;5056737;28;20118;-80
2024/03/30 05:50:41;;;;;;;55.42;7.20;;;19.60;32.80;;;;;;5057649;28;20423;-80
2024/03/30 05:53:07;;;;;;;73.13;7.95;;;19.60;32.70;;;;;;5038598;28;20091;-78
2024/03/30 05:55:33;;;;;;;55.35;6.93;;;19.60;32.80;;;;;;5056930;28;20096;-79
2024/03/30 05:58:09;;;;;;;54.97;7.40;;;19.70;33.00;;;;;;5039933;28;20132;-79
2024/03/30 06:00:38;;;;;;;58.88;7.90;;;19.70;33.40;;;;;;5057063;28;20045;-79
2024/03/30 06:03:05;;;;;;;74.88;7.25;;;19.60;33.80;;;;;;5057294;28;20079;-80
2024/03/30 06:05:34;;;;;;;65.65;6.38;;;19.60;34.10;;;;;;5056660;28;20052;-80
2024/03/30 06:08:00;;;;;;;68.03;7.03;;;19.60;34.60;;;;;;5037621;28;20055;-79
2024/03/30 06:10:26;;;;;;;53.72;6.78;;;19.50;34.50;;;;;;5040604;28;20447;-79
2024/03/30 06:12:51;;;;;;;54.03;5.55;;;19.50;34.90;;;;;;5040365;28;20049;-80
2024/03/30 06:15:17;;;;;;;65.13;7.70;;;19.50;34.80;;;;;;5040160;28;20132;-80
2024/03/30 06:17:46;;;;;;;64.95;6.72;;;19.50;35.20;;;;;;5039816;28;20044;-80
2024/03/30 06:20:14;;;;;;;58.00;7.43;;;19.50;36.10;;;;;;5040027;28;20086;-80
2024/03/30 06:22:40;;;;;;;70.55;6.68;;;19.60;36.80;;;;;;5040175;28;20056;-80
2024/03/30 06:25:08;;;;;;;63.88;6.95;;;19.50;37.10;;;;;;5045751;28;20473;-80
2024/03/30 06:27:34;;;;;;;59.78;7.95;;;19.60;36.80;;;;;;5040265;28;20059;-80
2024/03/30 06:30:01;;;;;;;51.17;6.68;;;19.50;36.70;;;;;;5070237;28;20052;-80
2024/03/30 06:32:27;;;;;;;49.63;6.60;;;19.40;37.30;;;;;;5039662;28;20086;-81
2024/03/30 06:34:53;;;;;;;67.95;6.30;;;19.40;37.50;;;;;;5056458;28;20056;-80
2024/03/30 06:37:19;;;;;;;55.45;6.80;;;19.30;37.50;;;;;;5039779;28;20061;-80
2024/03/30 06:45:14;;;;;;;66.32;7.10;;;19.30;36.90;;;;;;5056550;28;20056;-80
2024/03/30 06:47:42;;;;;;;45.88;6.10;;;19.30;36.70;;;;;;5038167;28;20102;-80
2024/03/30 06:50:08;;;;;;;52.88;5.60;;;19.40;36.40;;;;;;5084076;28;20071;-80
2024/03/30 06:52:34;;;;;;;42.60;6.20;;;19.40;36.10;;;;;;5056285;28;20048;-80
2024/03/30 06:55:00;;;;;;;46.70;6.38;;;19.40;36.20;;;;;;5039323;28;20526;-80
2024/03/30 06:57:26;;;;;;;57.97;6.72;;;19.50;34.90;;;;;;5056295;28;20746;-80
2024/03/30 06:59:51;;;;;;;56.97;6.72;;;19.50;35.50;;;;;;5056159;28;20063;-81
2024/03/30 07:02:17;;;;;;;45.58;5.22;;;19.60;35.70;;;;;;5039728;28;20060;-81
2024/03/30 07:04:46;;;;;;;32.20;5.75;;;19.60;36.10;;;;;;5055775;28;20064;-79
2024/03/30 07:07:12;;;;;;;47.65;6.00;;;19.60;36.40;;;;;;5039145;28;20059;-79
2024/03/30 07:09:38;;;;;;;36.13;4.97;;;19.60;36.30;;;;;;5039434;28;20056;-79
2024/03/30 07:12:04;;;;;;;46.58;5.28;;;19.60;34.40;;;;;;5039189;28;20419;-79
2024/03/30 07:14:30;;;;;;;47.50;4.80;;;19.70;33.70;;;;;;5055533;28;20059;-79
2024/03/30 07:16:56;;;;;;;44.00;4.95;;;19.80;33.30;;;;;;5038998;28;20367;-79
2024/03/30 07:19:24;;;;;;;32.83;4.55;;;19.90;32.80;;;;;;5039045;28;20044;-79
2024/03/30 07:21:51;;;;;;;50.78;5.60;;;19.90;32.20;;;;;;5035999;28;20063;-80
2024/03/30 07:24:17;;;;;;;50.00;4.82;;;20.00;31.90;;;;;;5039352;28;20052;-79
2024/03/30 07:26:46;;;;;;;41.90;5.95;;;20.10;31.70;;;;;;5039095;28;20075;-80
2024/03/30 07:29:12;;;;;;;44.28;5.03;;;20.20;31.80;;;;;;5038680;28;20098;-79
2024/03/30 07:31:38;;;;;;;43.15;4.93;;;20.20;32.30;;;;;;5038843;28;20056;-80
2024/03/30 07:34:04;;;;;;;53.08;7.00;;;20.20;32.50;;;;;;5038825;28;20121;-80
2024/03/30 07:36:30;;;;;;;36.70;5.38;;;20.30;32.50;;;;;;5037727;28;20082;-79
2024/03/30 07:38:56;;;;;;;43.38;4.57;;;20.30;31.80;;;;;;5055158;28;20425;-80
2024/03/30 07:41:23;;;;;;;45.20;5.40;;;20.30;31.90;;;;;;5055337;28;20041;-79
2024/03/30 07:43:49;;;;;;;37.20;4.85;;;20.30;32.30;;;;;;5038232;28;20114;-79
2024/03/30 07:46:15;;;;;;;50.00;5.45;;;20.30;32.40;;;;;;5038726;28;20135;-79
2024/03/30 07:48:41;;;;;;;42.92;5.47;;;20.30;32.30;;;;;;5038389;28;20056;-79
2024/03/30 07:51:06;;;;;;;41.22;5.00;;;20.30;32.30;;;;;;5055229;28;20052;-79
2024/03/30 07:53:32;;;;;;;37.10;4.75;;;20.30;32.60;;;;;;5038160;28;20384;-79
2024/03/30 07:55:58;;;;;;;45.08;4.97;;;20.30;32.70;;;;;;5038242;28;20076;-79
2024/03/30 07:58:26;;;;;;;47.20;5.53;;;20.30;32.40;;;;;;5055113;28;20075;-79
2024/03/30 08:00:56;;;;;;;37.60;4.10;;;20.30;32.60;;;;;;5037138;28;20465;-79
2024/03/30 08:03:24;;;;;;;44.97;5.93;;;20.30;32.20;;;;;;5043675;28;20053;-79
2024/03/30 08:05:59;;;;;;;41.85;4.10;;;20.30;31.90;;;;;;5038149;28;20072;-79
2024/03/30 08:08:25;;;;;;;41.17;4.50;;;20.30;32.40;;;;;;5035826;28;20067;-79
2024/03/30 08:10:51;;;;;;;43.60;4.03;;;20.30;32.10;;;;;;5037894;28;20074;-80
2024/03/30 08:13:17;;;;;;;39.78;4.65;;;20.30;32.30;;;;;;5037900;28;20049;-79
2024/03/30 08:15:45;;;;;;;39.95;4.88;;;20.30;32.30;;;;;;5037706;28;20057;-80
2024/03/30 08:18:11;;;;;;;38.65;4.72;;;20.30;32.00;;;;;;5054597;28;20059;-80
2024/03/30 08:20:38;;;;;;;43.72;5.25;;;20.20;31.50;;;;;;5037434;28;20484;-80
2024/03/30 08:23:04;;;;;;;49.63;5.47;;;20.30;32.60;;;;;;5036604;28;20072;-79
2024/03/30 08:25:30;;;;;;;46.20;5.10;;;20.20;32.80;;;;;;5036560;28;20052;-79
2024/03/30 08:27:55;;;;;;;37.97;4.60;;;20.20;32.90;;;;;;5038208;28;20076;-80
2024/03/30 08:30:21;;;;;;;45.10;5.07;;;20.20;32.60;;;;;;5034371;28;20052;-80
2024/03/30 08:32:50;;;;;;;49.63;5.18;;;20.20;32.80;;;;;;5054364;28;20461;-81
2024/03/30 08:35:18;;;;;;;47.92;5.32;;;20.20;32.60;;;;;;5037898;28;20063;-81
2024/03/30 08:37:44;;;;;;;56.75;6.25;;;20.30;32.00;;;;;;5037767;28;20075;-81
2024/03/30 08:40:11;;;;;;;41.25;4.68;;;20.40;32.20;;;;;;5038304;28;20124;-80
2024/03/30 08:42:39;;;;;;;41.33;5.50;;;20.50;32.30;;;;;;5054572;28;20393;-80
2024/03/30 08:45:06;;;;;;;44.95;5.20;;;20.60;31.80;;;;;;5037792;28;20072;-81
2024/03/30 08:47:32;;;;;;;36.17;5.00;;;20.80;31.70;;;;;;5052889;28;20056;-81
2024/03/30 08:49:58;;;;;;;35.47;5.07;;;20.90;31.30;;;;;;5037890;28;20056;-81
2024/03/30 08:52:24;;;;;;;45.58;5.55;;;21.00;31.30;;;;;;5037961;28;20543;-81
2024/03/30 08:54:50;;;;;;;45.65;5.72;;;21.00;31.90;;;;;;5037754;28;20154;-81
2024/03/30 08:57:16;;;;;;;42.58;5.00;;;21.10;31.90;;;;;;5037764;28;20049;-81
2024/03/30 08:59:42;;;;;;;42.83;5.10;;;21.10;31.20;;;;;;5054244;28;20060;-80
2024/03/30 09:02:07;;;;;;;48.72;5.97;;;21.10;31.20;;;;;;5041316;28;20126;-81
2024/03/30 09:04:33;;;;;;;42.15;5.82;;;21.20;31.10;;;;;;5035550;28;20448;-80
2024/03/30 09:07:01;;;;;;;55.25;5.95;;;21.20;31.50;;;;;;5035153;28;20053;-80
2024/03/30 09:09:28;;;;;;;53.88;6.60;;;21.30;31.50;;;;;;5052532;28;20064;-80
2024/03/30 09:11:57;;;;;;;56.05;6.03;;;21.50;31.30;;;;;;5036737;28;20056;-80
2024/03/30 09:14:25;;;;;;;62.30;6.80;;;21.70;31.30;;;;;;5032824;28;20448;-80
2024/03/30 09:16:53;;;;;;;62.17;6.18;;;21.90;31.40;;;;;;5036672;28;20114;-81
2024/03/30 09:19:19;;;;;;;54.40;5.82;;;22.20;30.90;;;;;;5053499;28;20068;-80
2024/03/30 09:21:45;;;;;;;45.10;6.25;;;22.40;29.70;;;;;;5037493;28;20135;-81
2024/03/30 09:24:11;;;;;;;55.03;6.18;;;22.70;29.80;;;;;;5034611;28;20045;-81
2024/03/30 09:26:37;;;;;;;49.03;5.35;;;22.90;29.60;;;;;;5038114;28;20087;-78
2024/03/30 09:29:03;;;;;;;70.55;6.55;;;23.20;28.60;;;;;;5058194;28;20049;-80
2024/03/30 09:31:36;;;;;;;61.83;7.78;;;23.50;28.60;;;;;;5057075;28;20217;-79
2024/03/30 09:34:01;;;;;;;54.30;6.07;;;23.90;27.70;;;;;;5040758;28;20063;-80
2024/03/30 09:36:27;;;;;;;70.80;6.90;;;24.30;27.10;;;;;;5056805;28;20069;-80
2024/03/30 09:38:53;;;;;;;60.55;7.40;;;24.50;26.10;;;;;;5040496;28;20098;-80
2024/03/30 09:41:22;;;;;;;60.28;7.18;;;24.50;26.20;;;;;;5039723;28;20052;-80
2024/03/30 09:43:51;;;;;;;65.22;7.50;;;24.70;25.80;;;;;;5081198;28;20385;-81
2024/03/30 09:46:20;;;;;;;68.65;7.45;;;24.90;26.10;;;;;;5040611;28;20064;-80
2024/03/30 09:48:47;;;;;;;57.70;6.90;;;25.20;26.20;;;;;;5039247;28;20542;-79
2024/03/30 09:51:16;;;;;;;58.40;7.13;;;25.30;25.80;;;;;;5038635;28;20400;-79
2024/03/30 09:53:44;;;;;;;69.93;7.25;;;25.40;25.30;;;;;;5039732;28;20508;-80
2024/03/30 09:56:10;;;;;;;73.00;7.60;;;25.50;25.40;;;;;;5083494;28;20049;-80
2024/03/30 09:58:39;;;;;;;69.20;8.13;;;25.60;25.00;;;;;;5056435;28;20068;-80
2024/03/30 10:01:05;;;;;;;54.30;7.30;;;25.50;25.30;;;;;;5040280;28;20049;-80
2024/03/30 10:03:31;;;;;;;72.05;7.68;;;25.90;25.90;;;;;;5040363;28;20063;-80
2024/03/30 10:06:00;;;;;;;53.35;7.78;;;26.30;26.50;;;;;;5037755;28;20040;-80
2024/03/30 10:08:28;;;;;;;72.30;6.78;;;26.80;25.90;;;;;;5038179;28;20067;-83
2024/03/30 10:11:00;;;;;;;62.75;7.35;;;27.10;25.90;;;;;;5040197;28;20056;-83
2024/03/30 10:13:30;;;;;;;69.07;7.22;;;27.20;25.40;;;;;;5084843;28;20056;-83
2024/03/30 10:15:58;;;;;;;73.88;7.90;;;27.20;26.00;;;;;;5040065;28;20354;-84
2024/03/30 10:18:24;;;;;;;83.03;9.35;;;27.30;26.50;;;;;;5087153;28;20056;-84
2024/03/30 10:20:53;;;;;;;79.82;7.72;;;27.80;27.10;;;;;;5088943;28;20063;-84
2024/03/30 10:23:19;;;;;;;72.10;7.75;;;28.30;25.40;;;;;;5039715;28;20056;-84
2024/03/30 10:25:52;;;;;;;71.35;8.27;;;28.80;25.80;;;;;;5038618;28;20052;-84
2024/03/30 10:28:21;;;;;;;58.95;7.88;;;29.60;25.30;;;;;;5056454;28;20125;-84
2024/03/30 10:30:48;;;;;;;61.08;8.73;;;30.60;24.50;;;;;;5038954;28;20465;-83
2024/03/30 10:33:21;;;;;;;68.95;8.23;;;31.60;24.70;;;;;;5055656;28;20044;-82
2024/03/30 10:35:49;;;;;;;71.40;7.78;;;32.50;23.60;;;;;;5055977;28;20044;-82
2024/03/30 10:38:17;;;;;;;73.40;8.73;;;33.10;22.90;;;;;;5038220;28;20477;-82
2024/03/30 10:40:44;;;;;;;57.30;8.25;;;33.80;22.10;;;;;;5039859;28;20099;-82
2024/03/30 10:43:10;;;;;;;61.70;8.63;;;34.20;22.20;;;;;;5080342;28;20637;-83
2024/03/30 10:45:39;;;;;;;80.75;10.07;;;34.50;21.50;;;;;;5056200;28;20293;-83
2024/03/30 10:48:07;;;;;;;63.28;9.07;;;34.70;21.70;;;;;;5056013;28;20063;-83
2024/03/30 10:50:33;;;;;;;78.65;9.20;;;34.70;21.10;;;;;;5039088;28;20063;-83
2024/03/30 10:53:05;;;;;;;67.97;8.23;;;34.50;20.30;;;;;;5039287;28;20064;-83
2024/03/30 10:55:38;;;;;;;71.90;8.57;;;34.10;20.80;;;;;;5052883;28;20048;-83
2024/03/30 10:58:07;;;;;;;63.38;8.77;;;34.30;21.90;;;;;;5055502;28;20485;-82
2024/03/30 11:00:33;;;;;;;78.07;8.05;;;34.50;20.30;;;;;;5055653;28;20067;-83
2024/03/30 11:03:04;;;;;;;74.22;9.05;;;34.40;19.90;;;;;;5055579;28;20394;-83
2024/03/30 11:05:31;;;;;;;66.90;8.07;;;33.50;20.00;;;;;;5036875;28;20060;-83
2024/03/30 11:07:59;;;;;;;64.40;7.60;;;32.70;20.80;;;;;;5038999;28;20055;-83
2024/03/30 11:10:26;;;;;;;67.15;9.02;;;32.50;20.80;;;;;;5055111;28;20053;-83
2024/03/30 11:12:52;;;;;;;63.42;7.80;;;32.20;20.80;;;;;;5038717;28;20040;-82
2024/03/30 11:15:22;;;;;;;63.20;7.88;;;32.30;21.00;;;;;;5066003;28;20461;-82
2024/03/30 11:18:02;;;;;;;76.68;9.02;;;32.30;20.80;;;;;;5049615;28;20493;-83
2024/03/30 11:20:44;;;;;;;68.03;9.07;;;32.60;21.30;;;;;;5047938;28;20508;-83
2024/03/30 11:23:20;;;;;;;71.28;8.13;;;32.60;20.70;;;;;;5052126;28;20044;-83
2024/03/30 11:25:50;;;;;;;64.68;8.57;;;32.30;20.80;;;;;;5038832;28;20052;-83
2024/03/30 11:28:24;;;;;;;63.17;8.15;;;31.90;21.90;;;;;;5025175;28;20424;-83
2024/03/30 11:31:01;;;;;;;78.80;8.73;;;31.20;22.10;;;;;;5038171;28;20049;-83
2024/03/30 11:33:54;;;;;;;64.30;7.90;;;30.70;22.90;;;;;;5053340;28;20064;-82
2024/03/30 11:36:57;;;;;;;74.88;7.88;;;30.20;23.70;;;;;;5038300;28;20052;-82
2024/03/30 11:39:42;;;;;;;58.65;7.03;;;29.60;24.00;;;;;;5031026;28;20063;-82
2024/03/30 11:42:35;;;;;;;74.95;7.82;;;29.30;25.00;;;;;;5054840;28;20063;-82
2024/03/30 11:45:04;;;;;;;87.90;8.57;;;29.00;25.10;;;;;;5049468;28;20060;-82
2024/03/30 11:47:30;;;;;;;54.50;7.65;;;28.50;25.00;;;;;;5035380;28;20083;-82
2024/03/30 11:49:59;;;;;;;67.82;6.75;;;28.20;24.70;;;;;;5054915;28;20052;-83
2024/03/30 11:52:30;;;;;;;64.32;7.40;;;28.10;24.10;;;;;;5055119;28;20079;-82
2024/03/30 11:54:55;;;;;;;73.43;7.30;;;27.80;23.20;;;;;;5052791;28;20359;-82
2024/03/30 11:57:26;;;;;;;70.18;8.30;;;27.70;23.90;;;;;;5038492;28;20323;-82
2024/03/30 11:59:54;;;;;;;68.28;6.82;;;27.40;23.80;;;;;;5078677;28;20052;-82
2024/03/30 12:02:22;;;;;;;61.63;7.28;;;27.00;23.60;;;;;;5054427;28;20040;-82
2024/03/30 12:04:48;;;;;;;63.22;7.18;;;26.80;23.50;;;;;;5037795;28;20056;-83
2024/03/30 12:07:16;;;;;;;61.90;7.43;;;26.80;24.00;;;;;;5037885;28;20056;-83
2024/03/30 12:09:43;;;;;;;74.30;7.00;;;26.90;23.90;;;;;;5037685;28;20060;-83
2024/03/30 12:12:16;;;;;;;66.30;7.20;;;27.80;24.50;;;;;;5037670;28;20056;-83
2024/03/30 12:14:45;;;;;;;67.30;7.60;;;29.60;24.90;;;;;;5037397;28;20436;-83
2024/03/30 12:17:11;;;;;;;63.28;8.05;;;31.30;21.20;;;;;;5084361;28;20053;-82
2024/03/30 12:19:40;;;;;;;72.20;9.35;;;32.70;19.80;;;;;;5054220;28;20535;-83
2024/03/30 12:22:06;;;;;;;65.60;7.43;;;33.40;19.40;;;;;;5034372;28;20044;-83
2024/03/30 12:24:35;;;;;;;67.95;8.52;;;34.10;18.50;;;;;;5037244;28;20420;-83
2024/03/30 12:27:01;;;;;;;69.85;8.70;;;34.10;18.10;;;;;;5037234;28;20397;-83
2024/03/30 12:29:28;;;;;;;60.40;7.38;;;33.50;18.20;;;;;;5053952;28;20049;-83
2024/03/30 12:31:54;;;;;;;77.00;9.25;;;32.80;18.70;;;;;;5053549;28;20059;-83
2024/03/30 12:34:23;;;;;;;72.00;8.38;;;31.80;19.10;;;;;;5037427;28;20472;-83
2024/03/30 12:36:50;;;;;;;64.70;8.73;;;31.20;20.50;;;;;;5028761;28;20114;-83